createdAt,value
2018-12-13T00:01:09.118Z,1.50
2018-12-13T00:03:36.619Z,1.50
2018-12-13T00:06:04.054Z,1.50
2018-12-13T00:08:31.494Z,1.50
2018-12-13T00:10:58.940Z,1.60
2018-12-13T00:13:26.468Z,1.60
2018-12-13T00:15:53.925Z,1.60
2018-12-13T00:18:21.425Z,1.70
2018-12-13T00:20:48.932Z,1.70
2018-12-13T00:23:16.363Z,1.70
2018-12-13T00:25:43.812Z,1.70
2018-12-13T00:28:11.297Z,1.80
2018-12-13T00:30:38.752Z,1.80
2018-12-13T00:33:06.194Z,1.80
2018-12-13T00:35:33.644Z,1.80
2018-12-13T00:38:01.077Z,1.90
2018-12-13T00:40:28.519Z,1.90
2018-12-13T00:42:56.895Z,1.90
2018-12-13T00:45:24.343Z,1.90
2018-12-13T00:47:51.800Z,2.00
2018-12-13T00:50:19.224Z,2.00
2018-12-13T00:52:46.767Z,2.00
2018-12-13T00:55:14.191Z,2.00
2018-12-13T00:57:41.643Z,2.00
2018-12-13T01:00:09.151Z,2.10
2018-12-13T01:02:36.603Z,2.10
2018-12-13T01:05:04.097Z,2.10
2018-12-13T01:07:31.511Z,2.10
2018-12-13T01:09:59.244Z,2.10
2018-12-13T01:12:26.659Z,2.10
2018-12-13T01:14:54.103Z,2.10
2018-12-13T01:17:21.531Z,2.10
2018-12-13T01:19:48.991Z,2.10
2018-12-13T01:22:16.446Z,2.10
2018-12-13T01:24:43.906Z,2.10
2018-12-13T01:27:11.353Z,2.10
2018-12-13T01:29:38.807Z,2.10
2018-12-13T01:32:06.250Z,2.10
2018-12-13T01:34:33.700Z,2.10
2018-12-13T01:37:01.184Z,2.10
2018-12-13T01:39:28.626Z,2.10
2018-12-13T01:41:56.155Z,2.10
2018-12-13T01:44:23.594Z,2.10
2018-12-13T01:46:51.043Z,2.10
2018-12-13T01:49:18.479Z,2.00
2018-12-13T01:54:19.842Z,2.00
2018-12-13T01:56:47.299Z,2.00
2018-12-13T01:59:14.759Z,2.00
2018-12-13T02:01:42.203Z,2.00
2018-12-13T02:04:09.660Z,1.90
2018-12-13T02:06:37.112Z,1.90
2018-12-13T02:09:05.733Z,1.90
2018-12-13T02:11:33.167Z,1.80
2018-12-13T02:14:00.630Z,1.80
2018-12-13T02:16:28.082Z,1.70
2018-12-13T02:18:55.611Z,1.70
2018-12-13T02:21:23.048Z,1.60
2018-12-13T02:23:50.491Z,1.60
2018-12-13T02:26:17.919Z,1.50
2018-12-13T02:28:45.370Z,1.40
2018-12-13T02:31:12.854Z,1.40
2018-12-13T02:33:40.286Z,1.30
2018-12-13T02:36:07.750Z,1.20
2018-12-13T02:38:35.202Z,1.20
2018-12-13T02:41:02.767Z,1.10
2018-12-13T02:43:30.236Z,1.00
2018-12-13T02:45:57.668Z,1.00
2018-12-13T02:48:25.100Z,0.80
2018-12-13T02:50:52.556Z,0.80
2018-12-13T02:53:20.006Z,0.70
2018-12-13T02:55:47.599Z,0.70
2018-12-13T02:58:15.069Z,0.70
2018-12-13T03:00:42.528Z,0.60
2018-12-13T03:03:09.960Z,0.60
2018-12-13T03:05:37.423Z,0.50
2018-12-13T03:08:04.979Z,0.40
2018-12-13T03:10:32.431Z,0.40
2018-12-13T03:12:59.853Z,0.40
2018-12-13T03:15:27.309Z,0.30
2018-12-13T03:17:54.848Z,0.30
2018-12-13T03:20:22.278Z,0.20
2018-12-13T03:22:49.745Z,0.20
2018-12-13T03:25:17.235Z,0.10
2018-12-13T03:27:44.686Z,0.10
2018-12-13T03:30:12.244Z,0.10
2018-12-13T03:32:39.756Z,0.00
2018-12-13T03:35:07.300Z,0.00
2018-12-13T03:37:34.907Z,-0.10
2018-12-13T03:40:02.353Z,-0.10
2018-12-13T03:42:29.817Z,-0.10
2018-12-13T03:44:57.261Z,-0.20
2018-12-13T03:47:24.899Z,-0.20
2018-12-13T03:49:52.527Z,-0.30
2018-12-13T03:52:19.979Z,-0.30
2018-12-13T03:54:47.533Z,-0.40
2018-12-13T03:57:15.047Z,-0.40
2018-12-13T03:59:42.511Z,-0.50
2018-12-13T04:02:09.953Z,-0.50
2018-12-13T04:04:37.433Z,-0.60
2018-12-13T04:07:04.945Z,-0.60
2018-12-13T04:09:32.405Z,-0.60
2018-12-13T04:11:59.866Z,-0.60
2018-12-13T04:14:27.351Z,-0.70
2018-12-13T04:16:54.797Z,-0.70
2018-12-13T04:19:22.268Z,-0.70
2018-12-13T04:21:49.716Z,-0.70
2018-12-13T04:24:17.198Z,-0.80
2018-12-13T04:26:44.669Z,-0.80
2018-12-13T04:29:12.109Z,-0.80
2018-12-13T04:31:39.582Z,-0.80
2018-12-13T04:34:07.071Z,-0.80
2018-12-13T04:36:34.497Z,-0.80
2018-12-13T04:39:01.967Z,-0.80
2018-12-13T04:41:29.425Z,-0.90
2018-12-13T04:43:56.876Z,-0.90
2018-12-13T04:46:24.345Z,-0.90
2018-12-13T04:48:51.780Z,-0.90
2018-12-13T04:51:19.225Z,-0.90
2018-12-13T04:53:46.679Z,-0.90
2018-12-13T04:56:14.121Z,-0.90
2018-12-13T04:58:41.577Z,-0.90
2018-12-13T05:01:09.029Z,-0.90
2018-12-13T05:03:36.493Z,-1.00
2018-12-13T05:06:03.944Z,-1.00
2018-12-13T05:08:31.421Z,-1.00
2018-12-13T05:10:58.885Z,-1.00
2018-12-13T05:13:26.346Z,-1.00
2018-12-13T05:15:53.828Z,-1.00
2018-12-13T05:18:21.274Z,-1.00
2018-12-13T05:20:48.751Z,-1.00
2018-12-13T05:23:16.190Z,-1.00
2018-12-13T05:25:43.627Z,-0.90
2018-12-13T05:28:11.105Z,-0.90
2018-12-13T05:30:38.544Z,-0.90
2018-12-13T05:33:06.057Z,-0.80
2018-12-13T05:35:33.510Z,-0.80
2018-12-13T05:38:00.965Z,-0.70
2018-12-13T05:40:28.408Z,-0.70
2018-12-13T05:42:55.881Z,-0.60
2018-12-13T05:45:23.325Z,-0.60
2018-12-13T05:47:50.774Z,-0.50
2018-12-13T05:50:18.236Z,-0.50
2018-12-13T05:52:45.699Z,-0.40
2018-12-13T05:55:13.144Z,-0.40
2018-12-13T05:57:40.611Z,-0.30
2018-12-13T06:00:08.597Z,-0.30
2018-12-13T06:02:36.047Z,-0.30
2018-12-13T06:05:04.933Z,-0.20
2018-12-13T06:07:32.474Z,-0.10
2018-12-13T06:09:59.937Z,-0.10
2018-12-13T06:12:27.414Z,0.00
2018-12-13T06:14:54.857Z,0.00
2018-12-13T06:17:22.363Z,0.00
2018-12-13T06:19:49.834Z,0.10
2018-12-13T06:22:17.326Z,0.20
2018-12-13T06:24:44.778Z,0.20
2018-12-13T06:27:12.243Z,0.30
2018-12-13T06:29:41.881Z,0.30
2018-12-13T06:32:09.185Z,0.40
2018-12-13T06:34:36.617Z,0.40
2018-12-13T06:37:04.080Z,0.40
2018-12-13T06:39:31.541Z,0.40
2018-12-13T06:41:59.008Z,0.50
2018-12-13T06:44:26.569Z,0.50
2018-12-13T06:46:54.437Z,0.60
2018-12-13T06:49:21.876Z,0.60
2018-12-13T06:51:49.325Z,0.70
2018-12-13T06:54:16.789Z,0.70
2018-12-13T06:56:44.222Z,0.70
2018-12-13T06:59:11.698Z,0.80
2018-12-13T07:01:39.193Z,0.80
2018-12-13T07:04:06.663Z,0.80
2018-12-13T07:06:34.097Z,0.90
2018-12-13T07:09:01.564Z,0.90
2018-12-13T07:11:29.009Z,0.90
2018-12-13T07:13:56.493Z,0.90
2018-12-13T07:16:23.929Z,0.90
2018-12-13T07:18:51.464Z,1.00
2018-12-13T07:21:18.911Z,1.00
2018-12-13T07:23:46.340Z,1.00
2018-12-13T07:26:13.801Z,1.00
2018-12-13T07:28:41.265Z,1.10
2018-12-13T07:31:08.744Z,1.10
2018-12-13T07:33:36.185Z,1.10
2018-12-13T07:36:03.704Z,1.10
2018-12-13T07:38:31.161Z,1.10
2018-12-13T07:40:58.603Z,1.10
2018-12-13T07:43:26.082Z,1.10
2018-12-13T07:45:53.513Z,1.10
2018-12-13T07:48:20.989Z,1.10
2018-12-13T07:50:48.429Z,1.00
2018-12-13T07:53:15.900Z,1.00
2018-12-13T07:55:43.344Z,1.00
2018-12-13T07:58:10.802Z,0.90
2018-12-13T08:00:38.301Z,0.90
2018-12-13T08:03:05.752Z,0.80
2018-12-13T08:05:33.188Z,0.80
2018-12-13T08:08:00.657Z,0.80
2018-12-13T08:10:28.171Z,0.70
2018-12-13T08:12:55.677Z,0.70
2018-12-13T08:15:23.120Z,0.70
2018-12-13T08:17:50.569Z,0.70
2018-12-13T08:20:18.136Z,0.70
2018-12-13T08:22:45.592Z,0.70
2018-12-13T08:25:13.064Z,0.60
2018-12-13T08:27:40.528Z,0.60
2018-12-13T08:30:08.048Z,0.60
2018-12-13T08:32:35.483Z,0.60
2018-12-13T08:35:03.639Z,0.70
2018-12-13T08:37:31.089Z,0.70
2018-12-13T08:39:58.709Z,0.80
2018-12-13T08:42:26.181Z,0.90
2018-12-13T08:44:53.625Z,0.90
2018-12-13T08:47:21.155Z,1.00
2018-12-13T08:49:48.592Z,1.00
2018-12-13T08:52:16.061Z,1.10
2018-12-13T08:54:43.489Z,1.20
2018-12-13T08:57:11.137Z,1.20
2018-12-13T08:59:38.643Z,1.20
2018-12-13T09:02:06.085Z,1.30
2018-12-13T09:04:33.588Z,1.40
2018-12-13T09:07:01.049Z,1.40
2018-12-13T09:09:28.519Z,1.40
2018-12-13T09:11:55.972Z,1.50
2018-12-13T09:14:23.428Z,1.50
2018-12-13T09:16:51.048Z,1.60
2018-12-13T09:19:18.489Z,1.70
2018-12-13T09:21:45.920Z,1.80
2018-12-13T09:24:13.393Z,1.80
2018-12-13T09:26:40.828Z,1.80
2018-12-13T09:29:08.285Z,1.80
2018-12-13T09:31:35.737Z,1.80
2018-12-13T09:34:03.192Z,1.80
2018-12-13T09:36:30.669Z,1.80
2018-12-13T09:38:58.205Z,1.80
2018-12-13T09:41:25.673Z,1.80
2018-12-13T09:43:53.127Z,1.90
2018-12-13T09:46:20.674Z,1.90
2018-12-13T09:48:49.392Z,1.90
2018-12-13T09:51:17.071Z,2.00
2018-12-13T09:53:44.551Z,2.10
2018-12-13T09:56:11.973Z,2.10
2018-12-13T09:58:39.441Z,2.20
2018-12-13T10:01:06.893Z,2.10
2018-12-13T10:03:34.385Z,2.20
2018-12-13T10:06:01.929Z,2.20
2018-12-13T10:08:29.381Z,2.20
2018-12-13T10:10:56.841Z,2.20
2018-12-13T10:13:24.315Z,2.20
2018-12-13T10:15:51.773Z,2.20
2018-12-13T10:18:19.220Z,2.20
2018-12-13T10:20:46.724Z,2.30
2018-12-13T10:23:14.270Z,2.30
2018-12-13T10:25:41.709Z,2.40
2018-12-13T10:28:09.163Z,2.40
2018-12-13T10:30:36.613Z,2.40
2018-12-13T10:33:04.073Z,2.50
2018-12-13T10:35:31.513Z,2.50
2018-12-13T10:37:58.970Z,2.50
2018-12-13T10:40:26.431Z,2.50
2018-12-13T10:42:53.866Z,2.50
2018-12-13T10:45:21.321Z,2.60
2018-12-13T10:47:48.788Z,2.70
2018-12-13T10:50:16.227Z,2.60
2018-12-13T10:52:43.761Z,2.70
2018-12-13T10:55:11.272Z,2.70
2018-12-13T10:57:38.733Z,2.70
2018-12-13T11:00:08.627Z,2.80
2018-12-13T11:02:49.877Z,2.80
2018-12-13T11:05:17.358Z,2.90
2018-12-13T11:07:44.796Z,2.90
2018-12-13T11:10:12.317Z,2.90
2018-12-13T11:12:39.753Z,3.00
2018-12-13T11:15:07.228Z,3.00
2018-12-13T11:17:34.656Z,3.10
2018-12-13T11:20:02.110Z,3.10
2018-12-13T11:22:29.556Z,3.10
2018-12-13T11:24:56.996Z,3.20
2018-12-13T11:27:34.057Z,3.20
2018-12-13T11:30:13.586Z,3.20
2018-12-13T11:32:41.043Z,3.20
2018-12-13T11:35:08.497Z,3.20
2018-12-13T11:37:35.968Z,3.30
2018-12-13T11:40:04.245Z,3.30
2018-12-13T11:42:31.729Z,3.30
2018-12-13T11:45:05.241Z,3.30
2018-12-13T11:47:32.689Z,3.30
2018-12-13T11:50:00.566Z,3.30
2018-12-13T11:52:28.033Z,3.30
2018-12-13T11:54:56.927Z,3.30
2018-12-13T11:57:24.445Z,3.30
2018-12-13T11:59:51.916Z,3.30
2018-12-13T12:02:23.948Z,3.40
2018-12-13T12:04:49.001Z,3.40
2018-12-13T12:07:16.444Z,3.40
2018-12-13T12:09:43.897Z,3.40
2018-12-13T12:12:11.359Z,3.40
2018-12-13T12:14:38.803Z,3.30
2018-12-13T12:17:06.361Z,3.30
2018-12-13T12:19:33.796Z,3.30
2018-12-13T12:22:01.226Z,3.30
2018-12-13T12:24:28.664Z,3.30
2018-12-13T12:26:56.098Z,3.30
2018-12-13T12:29:23.549Z,3.30
2018-12-13T12:31:50.991Z,3.30
2018-12-13T12:34:18.459Z,3.20
2018-12-13T12:36:45.908Z,3.20
2018-12-13T12:39:18.538Z,3.20
2018-12-13T12:41:42.807Z,3.20
2018-12-13T12:44:10.251Z,3.20
2018-12-13T12:46:37.796Z,3.20
2018-12-13T12:49:05.245Z,3.10
2018-12-13T12:51:32.685Z,3.10
2018-12-13T12:54:00.156Z,3.10
2018-12-13T12:56:27.597Z,3.10
2018-12-13T12:58:55.057Z,3.10
2018-12-13T13:01:22.502Z,3.10
2018-12-13T13:03:49.932Z,3.10
2018-12-13T13:06:17.473Z,3.10
2018-12-13T13:08:44.920Z,3.10
2018-12-13T13:11:12.393Z,3.10
2018-12-13T13:13:39.848Z,3.10
2018-12-13T13:16:07.285Z,3.10
2018-12-13T13:18:39.033Z,3.10
2018-12-13T13:21:04.186Z,3.10
2018-12-13T13:23:31.625Z,3.10
2018-12-13T13:25:59.085Z,3.10
2018-12-13T13:28:26.513Z,3.10
2018-12-13T13:30:53.945Z,3.10
2018-12-13T13:33:21.441Z,3.10
2018-12-13T13:35:48.977Z,3.10
2018-12-13T13:38:16.444Z,3.10
2018-12-13T13:40:43.880Z,3.10
2018-12-13T13:43:11.389Z,3.10
2018-12-13T13:45:38.856Z,3.10
2018-12-13T13:48:06.312Z,3.20
2018-12-13T13:50:33.779Z,3.10
2018-12-13T13:53:01.232Z,3.20
2018-12-13T13:55:28.688Z,3.20
2018-12-13T13:57:56.180Z,3.20
2018-12-13T14:00:23.641Z,3.20
2018-12-13T14:02:51.230Z,3.10
2018-12-13T14:05:18.672Z,3.20
2018-12-13T14:07:46.116Z,3.20
2018-12-13T14:10:13.576Z,3.10
2018-12-13T14:12:41.021Z,3.20
2018-12-13T14:15:08.593Z,3.20
2018-12-13T14:17:36.048Z,3.10
2018-12-13T14:20:03.982Z,3.10
2018-12-13T14:22:31.435Z,3.10
2018-12-13T14:24:58.933Z,3.10
2018-12-13T14:27:26.457Z,3.10
2018-12-13T14:29:53.898Z,3.10
2018-12-13T14:32:21.361Z,3.10
2018-12-13T14:34:48.801Z,3.10
2018-12-13T14:37:16.258Z,3.10
2018-12-13T14:39:44.521Z,3.10
2018-12-13T14:42:12.389Z,3.10
2018-12-13T14:44:39.845Z,3.10
2018-12-13T14:47:07.346Z,3.00
2018-12-13T14:49:34.804Z,3.00
2018-12-13T14:52:02.248Z,3.00
2018-12-13T14:54:29.705Z,3.00
2018-12-13T14:56:57.138Z,3.00
2018-12-13T14:59:24.693Z,3.00
2018-12-13T15:01:52.185Z,3.00
2018-12-13T15:04:19.642Z,3.00
2018-12-13T15:06:47.114Z,2.90
2018-12-13T15:09:14.567Z,2.90
2018-12-13T15:11:42.024Z,2.90
2018-12-13T15:14:09.477Z,2.90
2018-12-13T15:16:36.924Z,2.90
2018-12-13T15:19:04.365Z,2.90
2018-12-13T15:21:31.815Z,2.90
2018-12-13T15:23:59.314Z,2.90
2018-12-13T15:26:26.749Z,2.90
2018-12-13T15:28:54.271Z,2.90
2018-12-13T15:31:21.720Z,2.90
2018-12-13T15:33:49.200Z,2.90
2018-12-13T15:36:16.679Z,2.90
2018-12-13T15:38:44.140Z,2.90
2018-12-13T15:41:11.585Z,2.90
2018-12-13T15:43:39.024Z,2.90
2018-12-13T15:46:06.484Z,2.90
2018-12-13T15:48:33.925Z,2.90
2018-12-13T15:51:01.379Z,2.90
2018-12-13T15:53:28.812Z,2.90
2018-12-13T15:55:56.354Z,2.90
2018-12-13T15:58:23.804Z,2.90
2018-12-13T16:00:51.265Z,2.90
2018-12-13T16:03:18.712Z,2.90
2018-12-13T16:05:46.168Z,2.90
2018-12-13T16:08:13.633Z,2.90
2018-12-13T16:10:41.066Z,2.90
2018-12-13T16:13:08.541Z,2.90
2018-12-13T16:15:35.979Z,2.90
2018-12-13T16:18:03.508Z,3.00
2018-12-13T16:20:30.974Z,2.90
2018-12-13T16:22:58.568Z,2.90
2018-12-13T16:25:26.037Z,2.90
2018-12-13T16:27:53.469Z,2.90
2018-12-13T16:30:21.194Z,2.90
2018-12-13T16:32:48.657Z,2.90
2018-12-13T16:35:16.097Z,2.90
2018-12-13T16:37:43.544Z,2.90
2018-12-13T16:40:10.985Z,2.90
2018-12-13T16:42:38.498Z,2.90
2018-12-13T16:45:06.148Z,2.90
2018-12-13T16:47:33.620Z,2.90
2018-12-13T16:50:01.072Z,2.90
2018-12-13T16:52:28.541Z,2.80
2018-12-13T16:54:56.006Z,2.90
2018-12-13T16:57:23.468Z,2.80
2018-12-13T16:59:50.917Z,2.90
2018-12-13T17:02:18.558Z,2.90
2018-12-13T17:04:45.988Z,2.80
2018-12-13T17:07:13.428Z,2.80
2018-12-13T17:09:40.897Z,2.80
2018-12-13T17:12:08.369Z,2.80
2018-12-13T17:14:35.821Z,2.80
2018-12-13T17:17:03.573Z,2.80
2018-12-13T17:19:31.021Z,2.80
2018-12-13T17:21:58.472Z,2.80
2018-12-13T17:24:25.933Z,2.80
2018-12-13T17:26:53.417Z,2.70
2018-12-13T17:29:20.852Z,2.70
2018-12-13T17:31:48.376Z,2.70
2018-12-13T17:34:15.829Z,2.70
2018-12-13T17:36:43.336Z,2.70
2018-12-13T17:39:10.842Z,2.70
2018-12-13T17:41:38.308Z,2.70
2018-12-13T17:44:05.748Z,2.70
2018-12-13T17:46:33.209Z,2.70
2018-12-13T17:49:00.644Z,2.70
2018-12-13T17:51:28.081Z,2.60
2018-12-13T17:53:55.645Z,2.60
2018-12-13T17:56:23.107Z,2.60
2018-12-13T17:58:50.546Z,2.60
2018-12-13T18:01:18.056Z,2.60
2018-12-13T18:03:45.512Z,2.60
2018-12-13T18:06:12.969Z,2.60
2018-12-13T18:08:40.415Z,2.60
2018-12-13T18:11:07.937Z,2.60
2018-12-13T18:13:35.364Z,2.60
2018-12-13T18:16:02.850Z,2.60
2018-12-13T18:18:30.281Z,2.60
2018-12-13T18:20:57.804Z,2.60
2018-12-13T18:23:25.245Z,2.60
2018-12-13T18:25:52.681Z,2.60
2018-12-13T18:28:20.147Z,2.60
2018-12-13T18:30:47.580Z,2.60
2018-12-13T18:33:15.040Z,2.60
2018-12-13T18:35:42.493Z,2.60
2018-12-13T18:38:10.016Z,2.60
2018-12-13T18:40:37.463Z,2.60
2018-12-13T18:43:04.931Z,2.60
2018-12-13T18:45:34.313Z,2.60
2018-12-13T18:48:01.781Z,2.60
2018-12-13T18:50:29.252Z,2.60
2018-12-13T18:52:56.716Z,2.60
2018-12-13T18:55:24.164Z,2.60
2018-12-13T18:57:51.678Z,2.50
2018-12-13T19:00:19.117Z,2.60
2018-12-13T19:02:46.560Z,2.50
2018-12-13T19:05:14.024Z,2.50
2018-12-13T19:07:41.477Z,2.50
2018-12-13T19:10:08.945Z,2.50
2018-12-13T19:12:36.389Z,2.50
2018-12-13T19:15:04.552Z,2.50
2018-12-13T19:17:32.020Z,2.50
2018-12-13T19:19:59.457Z,2.50
2018-12-13T19:22:26.924Z,2.50
2018-12-13T19:24:54.369Z,2.40
2018-12-13T19:27:21.843Z,2.50
2018-12-13T19:29:49.333Z,2.50
2018-12-13T19:32:16.780Z,2.50
2018-12-13T19:34:44.241Z,2.40
2018-12-13T19:37:11.681Z,2.40
2018-12-13T19:39:39.140Z,2.40
2018-12-13T19:42:06.622Z,2.40
2018-12-13T19:44:34.058Z,2.40
2018-12-13T19:47:01.593Z,2.40
2018-12-13T19:49:29.101Z,2.40
2018-12-13T19:51:56.547Z,2.40
2018-12-13T19:54:24.013Z,2.40
2018-12-13T19:56:51.456Z,2.40
2018-12-13T19:59:18.917Z,2.40
2018-12-13T20:01:46.404Z,2.40
2018-12-13T20:04:13.890Z,2.40
2018-12-13T20:06:41.324Z,2.40
2018-12-13T20:09:08.925Z,2.40
2018-12-13T20:11:36.393Z,2.40
2018-12-13T20:14:03.880Z,2.30
2018-12-13T20:16:31.345Z,2.30
2018-12-13T20:18:58.789Z,2.30
2018-12-13T20:21:26.361Z,2.30
2018-12-13T20:23:53.830Z,2.30
2018-12-13T20:26:21.282Z,2.30
2018-12-13T20:28:49.001Z,2.20
2018-12-13T20:31:16.463Z,2.20
2018-12-13T20:33:46.636Z,2.20
2018-12-13T20:36:14.066Z,2.20
2018-12-13T20:38:41.511Z,2.20
2018-12-13T20:41:08.981Z,2.20
2018-12-13T20:43:36.448Z,2.20
2018-12-13T20:46:03.881Z,2.20
2018-12-13T20:48:31.340Z,2.20
2018-12-13T20:50:58.798Z,2.20
2018-12-13T20:53:26.236Z,2.20
2018-12-13T20:55:53.731Z,2.20
2018-12-13T20:58:21.195Z,2.20
2018-12-13T21:00:48.653Z,2.20
2018-12-13T21:03:16.191Z,2.20
2018-12-13T21:05:43.705Z,2.20
2018-12-13T21:08:11.141Z,2.20
2018-12-13T21:10:40.097Z,2.10
2018-12-13T21:13:07.616Z,2.10
2018-12-13T21:15:35.072Z,2.10
2018-12-13T21:18:02.562Z,2.10
2018-12-13T21:20:30.028Z,2.10
2018-12-13T21:22:57.491Z,2.10
2018-12-13T21:25:25.006Z,2.10
2018-12-13T21:27:53.452Z,2.10
2018-12-13T21:30:20.893Z,2.10
2018-12-13T21:32:48.349Z,2.10
2018-12-13T21:35:15.808Z,2.10
2018-12-13T21:37:43.236Z,2.20
2018-12-13T21:40:10.693Z,2.10
2018-12-13T21:42:38.167Z,2.10
2018-12-13T21:45:05.717Z,2.10
2018-12-13T21:47:33.157Z,2.10
2018-12-13T21:50:00.616Z,2.10
2018-12-13T21:52:28.063Z,2.10
2018-12-13T21:54:55.497Z,2.10
2018-12-13T21:57:23.229Z,2.10
2018-12-13T21:59:50.688Z,2.10
2018-12-13T22:02:18.137Z,2.10
2018-12-13T22:04:45.610Z,2.10
2018-12-13T22:07:13.065Z,2.10
2018-12-13T22:09:40.529Z,2.10
2018-12-13T22:12:07.960Z,2.00
2018-12-13T22:14:35.423Z,2.00
2018-12-13T22:17:02.964Z,2.00
2018-12-13T22:19:30.420Z,2.00
2018-12-13T22:21:57.856Z,2.00
2018-12-13T22:24:25.318Z,2.00
2018-12-13T22:26:52.755Z,2.00
2018-12-13T22:29:20.240Z,2.00
2018-12-13T22:31:47.724Z,2.00
2018-12-13T22:34:15.172Z,2.00
2018-12-13T22:36:42.788Z,2.00
2018-12-13T22:39:10.245Z,2.00
2018-12-13T22:41:37.699Z,1.90
2018-12-13T22:44:05.180Z,1.90
2018-12-13T22:46:32.625Z,1.90
2018-12-13T22:49:00.075Z,1.90
2018-12-13T22:51:27.528Z,1.90
2018-12-13T22:53:54.981Z,1.90
2018-12-13T22:56:22.450Z,1.90
2018-12-13T22:58:49.887Z,1.90
2018-12-13T23:01:17.640Z,1.90
2018-12-13T23:03:45.097Z,1.90
2018-12-13T23:06:12.576Z,1.90
2018-12-13T23:08:40.014Z,1.90
2018-12-13T23:11:07.894Z,1.90
2018-12-13T23:13:35.367Z,1.90
2018-12-13T23:16:02.832Z,1.90
2018-12-13T23:18:30.276Z,1.90
2018-12-13T23:20:57.756Z,1.90
2018-12-13T23:23:25.216Z,1.90
2018-12-13T23:25:52.678Z,1.90
2018-12-13T23:28:20.168Z,1.90
2018-12-13T23:30:47.628Z,1.90
2018-12-13T23:33:15.065Z,1.90
2018-12-13T23:35:42.503Z,1.90
2018-12-13T23:38:10.054Z,1.80
2018-12-13T23:40:37.500Z,1.90
2018-12-13T23:43:04.978Z,1.90
2018-12-13T23:45:32.481Z,1.80
2018-12-13T23:48:00.011Z,1.80
2018-12-13T23:50:27.477Z,1.80
2018-12-13T23:52:54.925Z,1.80
2018-12-13T23:55:22.386Z,1.80
2018-12-13T23:57:49.837Z,1.80
